Hauptseite
METAR-TAF:

METAR-TAF

Flughäfen :

Flughafen Rostock-Laage

Rostock, Deutschland

Breite: 53-55N, Länge: 012-17E, Höhe: 40 m

Beobachtung

Neuester Wetterbericht von vor 44 Minuten, um 07:20 UTC
Wind 4 kt aus Ost
Temperatur 21°C
Luftfeuchtigkeit 60%
Luftdruck 1025 hPa
Sichtweite 10 km oder mehr
Leicht bewölkt in der Höhe von 37000 ft

METAR: ETNL 110720Z 08004KT 9999 FEW370 21/13 Q1025 BLU+BLU+

Zeit: 10:04 (08:04 UTC)

Prognose

Neuester Wetterbericht von vor 3 Stunden und 48 Minuten, um 04:16 UTC
Gültige Prognose vom 11 um 05 UTC bis 11 um 17 UTC
Wind 2 kt aus unterschiedlichen Richtungen
Sichtweite: 4000 m
Leicht bewölkt in der Höhe von 35000 ft
Flacher Nebel
Übergehend zu
vom 11 um 05 UTC bis 11 um 06 UTC
Wind 5 kt aus Ost
Sichtweite 10 km oder mehr
Leicht bewölkt in der Höhe von 35000 ft

TAF: ETNL 110416Z 1105/1117 VRB02KT 4000 MIFG FEW350 BECMG 1105/1106 08005KT 9999 NSW FEW350 BY ETGL

Wetterbeobachtungen und Prognosen von mehr als 4000 Flughäfen (METAR und TAF Bericht).

Die verfügbaren Stationen werden durch gelbe und rote Markierungen auf der Karte dargestellt.

Führen Sie die Maus auf sie, um den Namen der Station zu sehen.

Darauf klicken, um die Beobachtung von Wetterbeobachtungen und Prognosen zu sehen.

Um die Karte zu ändern : klicken Sie auf den grünen Tasten mit einem schwarzen Kreuz Zum Vergrößern, auf den grünen Button mit einem Gedankenstrich zu verkleinern, oder auf die grünen Pfeile für benachbarte Karten.


METAR-TAF: